Home > Products > Valid Products > MTR

000
SAUS43 KAPX 170655
MTRAPN
METAR KAPN 170654Z AUTO 23005KT 10SM FEW070 09/06 A3000 RMK AO2
SLP162 T00890056





000
SAUS43 KAPX 170555
MTRAPN
METAR KAPN 170554Z AUTO 23004KT 10SM CLR 09/05 A3001 RMK AO2 SLP164
T00940050 10133 20083 55001





000
SAUS43 KAPX 170455
MTRAPN
METAR KAPN 170454Z AUTO 24005KT 10SM OVC060 10/05 A3001 RMK AO2
SLP165 T01000050 401780033





000
SAUS43 KAPX 170355
MTRAPN
METAR KAPN 170354Z AUTO 22007KT 10SM BKN070 10/06 A3001 RMK AO2
SLP165 T01000056





000
SAUS43 KAPX 170255
MTRAPN
METAR KAPN 170254Z AUTO 22006KT 10SM CLR 10/06 A3001 RMK AO2 SLP166
T01000056 58002





000
SAUS43 KAPX 170155
MTRAPN
METAR KAPN 170154Z AUTO 23003KT 10SM CLR 10/06 A3002 RMK AO2 SLP169
T01000056





000
SAUS43 KAPX 170055
MTRAPN
METAR KAPN 170054Z AUTO 00000KT 10SM CLR 10/06 A3003 RMK AO2 SLP171
T01000061





000
SAUS43 KAPX 162355
MTRAPN
METAR KAPN 162354Z AUTO 23003KT 10SM CLR 13/06 A3002 RMK AO2 SLP169
T01330061 10178 20133 58003





000
SAUS43 KAPX 162256
MTRAPN
METAR KAPN 162254Z AUTO 25005KT 10SM CLR 16/04 A3003 RMK AO2 SLP172
T01610044





000
SAUS43 KAPX 162155
MTRAPN
METAR KAPN 162154Z AUTO 28005KT 10SM CLR 17/03 A3002 RMK AO2 SLP170
T01720033





000
SAUS43 KAPX 162055
MTRAPN
METAR KAPN 162054Z AUTO 26009KT 10SM FEW060 17/03 A3003 RMK AO2
SLP172 T01720033 56011





000
SAUS43 KAPX 161955
MTRAPN
METAR KAPN 161954Z AUTO 24007KT 10SM FEW060 17/05 A3003 RMK AO2
SLP174 T01670050





000
SAUS43 KAPX 161855
MTRAPN
METAR KAPN 161854Z AUTO 23008KT 10SM BKN055 17/06 A3005 RMK AO2
SLP178 T01670056





000
SAUS43 KAPX 161755
MTRAPN
METAR KAPN 161754Z AUTO 26007KT 10SM FEW060 17/06 A3006 RMK AO2
SLP183 T01670056 10167 20056 56018





000
SAUS43 KAPX 161656
MTRAPN
METAR KAPN 161654Z AUTO 26006G15KT 10SM SCT050 16/06 A3008 RMK AO2
SLP190 T01560056





000
SAUS43 KAPX 161556 COR
MTRAPN
METAR KAPN 161554Z AUTO 25010G16KT 10SM BKN032 15/07 A3009 RMK AO2
SLP194 T01500067





000
SAUS43 KAPX 161555
MTRAPN
METAR KAPN 161554Z AUTO 25010G16KT 10SM BKN032 15/07 A3009 RMK AO2
SLP194 T01500067





000
SAUS43 KAPX 161455
MTRAPN
METAR KAPN 161454Z AUTO 22005KT 10SM FEW020 13/08 A3012 RMK AO2
SLP202 T01330083 58003





000
SAUS43 KAPX 161355
MTRAPN
METAR KAPN 161354Z AUTO 24004KT 10SM CLR 11/08 A3013 RMK AO2 SLP206
T01110083





000
SAUS43 KAPX 161255
MTRAPN
METAR KAPN 161254Z AUTO 23003KT 10SM CLR 08/07 A3013 RMK AO2 SLP207
T00830072





000
SAUS43 KAPX 161155
MTRAPN
METAR KAPN 161154Z AUTO 23003KT 10SM CLR 06/04 A3013 RMK AO2 SLP206
T00560044 10061 20033 51006





000
SAUS43 KAPX 161055
MTRAPN
METAR KAPN 161054Z AUTO 25004KT 10SM CLR 06/05 A3013 RMK AO2 SLP205
T00560050





000
SAUS43 KAPX 160955
MTRAPN
METAR KAPN 160954Z AUTO 26004KT 10SM OVC065 06/05 A3012 RMK AO2
SLP203 T00610050





000
SAUS43 KAPX 160855
MTRAPN
METAR KAPN 160854Z AUTO 00000KT 10SM FEW070 04/04 A3011 RMK AO2
SLP200 T00440039 53004





000
SAUS43 KAPX 160755
MTRAPN
METAR KAPN 160754Z AUTO 00000KT 10SM CLR 05/04 A3011 RMK AO2 SLP198
T00500044





000
SAUS43 KAPX 160655
MTRAPN
METAR KAPN 160654Z AUTO 00000KT 10SM CLR 06/04 A3010 RMK AO2 SLP196
T00560044





000
SAUS43 KAPX 160555
MTRAPN
METAR KAPN 160554Z AUTO 27003KT 10SM CLR 06/05 A3010 RMK AO2 SLP195
T00610050 10122 20050 53001





000
SAUS43 KAPX 160455
MTRAPN
METAR KAPN 160454Z AUTO 26004KT 10SM CLR 07/06 A3010 RMK AO2 SLP195
T00670061 401560056





000
SAUS43 KAPX 160355
MTRAPN
METAR KAPN 160354Z AUTO 00000KT 10SM CLR 07/06 A3009 RMK AO2 SLP192
T00670061





000
SAUS43 KAPX 160255
MTRAPN
METAR KAPN 160254Z AUTO 26003KT 10SM FEW043 08/07 A3009 RMK AO2
SLP194 T00830072 51006





000
SAUS43 KAPX 160155
MTRAPN
METAR KAPN 160154Z AUTO 29003KT 10SM FEW050 08/07 A3009 RMK AO2
SLP193 T00830072





000
SAUS43 KAPX 160055
MTRAPN
METAR KAPN 160054Z AUTO 00000KT 10SM BKN042 11/09 A3008 RMK AO2
SLP191 T01060089





000
SAUS43 KAPX 152355
MTRAPN
METAR KAPN 152354Z AUTO 00000KT 10SM CLR 12/09 A3007 RMK AO2 SLP188
T01170094 10156 20117 53003





000
SAUS43 KAPX 152255
MTRAPN
METAR KAPN 152254Z AUTO 17004KT 10SM SCT044 13/11 A3007 RMK AO2
SLP184 T01330106





000
SAUS43 KAPX 152155
MTRAPN
METAR KAPN 152154Z AUTO 01005KT 10SM CLR 14/08 A3006 RMK AO2 SLP182
T01440083





000
SAUS43 KAPX 152056 COR
MTRAPN
METAR KAPN 152054Z AUTO VRB04KT 10SM SCT120 16/08 A3007 RMK AO2
SLP184 T01560078 55005





000
SAUS43 KAPX 151956 COR
MTRAPN
METAR KAPN 151954Z AUTO 27006KT 10SM OVC110 15/07 A3006 RMK AO2
SLP181 T01500067





000
SAUS43 KAPX 151855
MTRAPN
METAR KAPN 151854Z AUTO 28006KT 10SM BKN100 OVC110 15/08 A3007 RMK
AO2 SLP187 T01500083





000
SAUS43 KAPX 151755
MTRAPN
METAR KAPN 151754Z AUTO 26005KT 10SM OVC110 15/08 A3008 RMK AO2
SLP189 T01500083 10150 20100 57006





000
SAUS43 KAPX 151655
MTRAPN
METAR KAPN 151654Z AUTO 24005KT 10SM OVC100 14/08 A3008 RMK AO2
SLP190 T01440083





000
SAUS43 KAPX 151555
MTRAPN
METAR KAPN 151554Z AUTO 30005KT 10SM BKN110 14/09 A3010 RMK AO2
SLP194 T01440089





000
SAUS43 KAPX 151455
MTRAPN
METAR KAPN 151454Z AUTO VRB05KT 10SM OVC100 13/09 A3010 RMK AO2
SLP195 T01330094 50000





000
SAUS43 KAPX 151355
MTRAPN
METAR KAPN 151354Z AUTO 25004KT 10SM OVC100 12/10 A3010 RMK AO2
SLP198 T01220100





000
SAUS43 KAPX 151255
MTRAPN
METAR KAPN 151254Z AUTO 00000KT 10SM OVC110 11/09 A3010 RMK AO2
SLP197 T01110094





000
SAUS43 KAPX 151155
MTRAPN
METAR KAPN 151154Z AUTO 22004KT 10SM OVC120 10/08 A3010 RMK AO2
SLP196 60000 T01000083 10106 20089 50006





000
SAUS43 KAPX 151055
MTRAPN
METAR KAPN 151054Z AUTO 00000KT 10SM SCT110 10/08 A3010 RMK AO2
SLP195 T01000083 TSNO





000
SAUS43 KAPX 150955
MTRAPN
METAR KAPN 150954Z AUTO 26004KT 10SM CLR 11/08 A3010 RMK AO2 SLP195
T01060078 TSNO





000
SAUS43 KAPX 150855
MTRAPN
METAR KAPN 150854Z AUTO 21005KT 10SM CLR 10/07 A3008 RMK AO2 SLP189
60000 T01000072 58009 TSNO





000
SAUS43 KAPX 150755
MTRAPN
METAR KAPN 150754Z AUTO 21005KT 10SM CLR 09/07 A3009 RMK AO2 SLP193
T00890067 TSNO





000
SAUS43 KAPX 150655
MTRAPN
METAR KAPN 150654Z AUTO 21007KT 10SM FEW075 BKN085 OVC100 10/07
A3010 RMK AO2 RAB0556E05 SLP195 P0000 T01000067 TSNO





000
SAUS43 KAPX 150555
MTRAPN
METAR KAPN 150554Z AUTO 21005KT 10SM FEW070 OVC100 09/07 A3011 RMK
AO2 SLP199 T00890067 10111 20083 58006 TSNO





000
SAUS43 KAPX 150455
MTRAPN
METAR KAPN 150454Z AUTO 21004KT 10SM SCT100 09/07 A3011 RMK AO2
SLP201 T00890067 401390006 TSNO





000
SAUS43 KAPX 150355
MTRAPN
METAR KAPN 150354Z AUTO 20005KT 10SM BKN100 09/07 A3012 RMK AO2
SLP203 T00940072 TSNO





000
SAUS43 KAPX 150255
MTRAPN
METAR KAPN 150254Z AUTO 20005KT 10SM FEW100 09/07 A3013 RMK AO2
SLP205 T00940072 58005 TSNO





000
SAUS43 KAPX 150155
MTRAPN
METAR KAPN 150154Z AUTO 19003KT 10SM FEW100 09/07 A3013 RMK AO2
SLP207 T00890072 TSNO





000
SAUS43 KAPX 150055
MTRAPN
METAR KAPN 150054Z AUTO 18006KT 10SM CLR 10/07 A3014 RMK AO2 SLP212
T01000072 TSNO





000
SAUS43 KAPX 142355
MTRAPN
METAR KAPN 142354Z AUTO 18007KT 10SM CLR 11/08 A3014 RMK AO2 SLP212
T01110078 10139 20111 58009 TSNO





000
SAUS43 KAPX 142256
MTRAPN
METAR KAPN 142254Z AUTO 19006KT 10SM BKN060 13/07 A3016 RMK AO2
SLP218 T01280072 TSNO





000
SAUS43 KAPX 142155
MTRAPN
METAR KAPN 142154Z AUTO 19005KT 10SM OVC060 13/07 A3016 RMK AO2
SLP218 T01330067 TSNO





000
SAUS43 KAPX 142056
MTRAPN
METAR KAPN 142054Z AUTO 22008KT 10SM BKN045 OVC055 13/06 A3017 RMK
AO2 SLP220 T01330056 56019 TSNO





000
SAUS43 KAPX 141955
MTRAPN
METAR KAPN 141954Z AUTO 22009G15KT 10SM OVC065 14/04 A3018 RMK AO2
SLP226 T01390044 TSNO





000
SAUS43 KAPX 141855
MTRAPN
METAR KAPN 141854Z AUTO 21010G17KT 10SM OVC060 14/04 A3021 RMK AO2
SLP234 T01390044 TSNO





000
SAUS43 KAPX 141755
MTRAPN
METAR KAPN 141754Z AUTO 22007G16KT 10SM OVC060 13/04 A3023 RMK AO2
SLP240 T01330044 10139 20033 58019 TSNO





000
SAUS43 KAPX 141655
MTRAPN
METAR KAPN 141654Z AUTO 20009KT 10SM OVC065 13/04 A3025 RMK AO2
SLP247 T01330044 TSNO





000
SAUS43 KAPX 141555
MTRAPN
METAR KAPN 141554Z AUTO 20010KT 10SM OVC060 12/05 A3027 RMK AO2
SLP254 T01220050 TSNO





000
SAUS43 KAPX 141455
MTRAPN
METAR KAPN 141454Z AUTO 20007KT 10SM OVC060 11/06 A3028 RMK AO2
SLP259 T01060056 56008 TSNO





000
SAUS43 KAPX 141355
MTRAPN
METAR KAPN 141354Z AUTO 19005KT 10SM OVC060 09/06 A3029 RMK AO2
SLP261 T00940061 TSNO





000
SAUS43 KAPX 141255
MTRAPN
METAR KAPN 141254Z AUTO 20006KT 10SM CLR 06/04 A3029 RMK AO2 SLP264
T00610044 TSNO





000
SAUS43 KAPX 141155
MTRAPN
METAR KAPN 141154Z AUTO 22005KT 10SM CLR 03/02 A3031 RMK AO2 SLP268
70001 T00330022 10033 20006 56008 TSNO





000
SAUS43 KAPX 141055
MTRAPN
METAR KAPN 141054Z AUTO 00000KT 10SM CLR 02/01 A3031 RMK AO2 SLP271
T00170011 TSNO





000
SAUS43 KAPX 140955
MTRAPN
METAR KAPN 140954Z AUTO 00000KT 10SM CLR 01/01 A3032 RMK AO2 SLP272
T00060006 TSNO





000
SAUS43 KAPX 140855
MTRAPN
METAR KAPN 140854Z AUTO 21003KT 10SM CLR 02/02 A3033 RMK AO2 SLP275
T00220017 53002 TSNO





000
SAUS43 KAPX 140755
MTRAPN
METAR KAPN 140754Z AUTO 21003KT 10SM CLR 01/01 A3032 RMK AO2 SLP274
T00110011 TSNO





    US Dept of Commerce
    National Oceanic and Atmospheric Administration
    National Weather Service
    1325 East West Highway
    Silver Spring, MD 20910
    Page Author: NWS Internet Services Team
Disclaimer
Information Quality
Credits
Glossary
Privacy Policy
Freedom of Information Act (FOIA)
About Us
Career Opportunities